Flight Track Log - Related Links

Times and Time Zones

All times are in EDT time to prevent confusion due to time zone crossing. See the CUA5641 flight status page for this flight to view local times or setup timezone preferences in your user account.

Time Position Orientation Groundspeed Altitude Reporting Facility
EDT Latitude Longitude Course Direction KTS MPH feet Rate Location/Type
Sun 04:05:00 AM 37.7301 113.7752 233° Southwest  Level Estimated
Sun 04:06:00 AM 37.6797 113.6921 233° Southwest  Level Estimated
Sun 04:07:00 AM 37.6293 113.6092 232° Southwest  Level Estimated
Sun 04:08:00 AM 37.5787 113.5263 232° Southwest  Level Estimated
Sun 04:09:00 AM 37.5281 113.4436 232° Southwest  Level Estimated
Sun 04:10:00 AM 37.4775 113.3609 232° Southwest  Level Estimated
Sun 04:11:00 AM 37.4268 113.2784 232° Southwest  Level Estimated
Sun 04:12:00 AM 37.3760 113.1960 232° Southwest  Level Estimated
Sun 04:13:00 AM 37.3252 113.1137 232° Southwest  Level Estimated
Sun 04:14:00 AM 37.2743 113.0315 232° Southwest  Level Estimated
Sun 04:15:00 AM 37.2234 112.9494 232° Southwest  Level Estimated
Sun 04:16:00 AM 37.1724 112.8675 232° Southwest  Level Estimated
Sun 04:17:00 AM 37.1214 112.7856 232° Southwest  Level Estimated
Sun 04:18:00 AM 37.0703 112.7039 232° Southwest  Level Estimated
Sun 04:19:00 AM 37.0191 112.6223 232° Southwest  Level Estimated
Sun 04:20:00 AM 36.9679 112.5407 232° Southwest  Level Estimated
Sun 04:21:00 AM 36.9167 112.4593 232° Southwest  Level Estimated
Sun 04:22:00 AM 36.8653 112.3780 232° Southwest  Level Estimated
Sun 04:23:00 AM 36.8140 112.2968 232° Southwest  Level Estimated
Sun 04:24:00 AM 36.7625 112.2157 232° Southwest  Level Estimated
Sun 04:25:00 AM 36.7110 112.1348 232° Southwest  Level Estimated
Sun 04:26:00 AM 36.6595 112.0539 232° Southwest  Level Estimated
Sun 04:27:00 AM 36.6079 111.9731 231° Southwest  Level Estimated
Sun 04:28:00 AM 36.5563 111.8925 231° Southwest  Level Estimated
Sun 04:29:00 AM 36.5046 111.8119 231° Southwest  Level Estimated
Sun 04:30:00 AM 36.4528 111.7315 231° Southwest  Level Estimated
Sun 04:31:00 AM 36.4010 111.6512 231° Southwest  Level Estimated
Sun 04:32:00 AM 36.3491 111.5709 231° Southwest  Level Estimated
Sun 04:33:00 AM 36.2972 111.4908 231° Southwest  Level Estimated
Sun 04:34:00 AM 36.2452 111.4108 231° Southwest  Level Estimated
Sun 04:35:00 AM 36.1932 111.3309 231° Southwest  Level Estimated
Sun 04:36:00 AM 36.1411 111.2511 231° Southwest  Level Estimated
Sun 04:37:00 AM 36.0890 111.1714 231° Southwest  Level Estimated
Sun 04:38:00 AM 36.0368 111.0918 231° Southwest  Level Estimated
Sun 04:39:00 AM 35.9846 111.0123 231° Southwest  Level Estimated
Sun 04:40:00 AM 35.9323 110.9330 231° Southwest  Level Estimated
Sun 04:41:00 AM 35.8799 110.8537 231° Southwest  Level Estimated
Sun 04:42:00 AM 35.8275 110.7745 231° Southwest  Level Estimated
Sun 04:43:00 AM 35.7751 110.6955 231° Southwest  Level Estimated
Sun 04:44:00 AM 35.7226 110.6165 231° Southwest  Level Estimated
Sun 04:45:00 AM 35.6700 110.5377 231° Southwest  Level Estimated
Sun 04:46:00 AM 35.6174 110.4589 231° Southwest  Level Estimated
Sun 04:47:00 AM 35.5648 110.3803 231° Southwest  Level Estimated
Sun 04:48:00 AM 35.5121 110.3017 231° Southwest  Level Estimated
Sun 04:49:00 AM 35.4593 110.2233 230° Southwest  Level Estimated
Sun 04:50:00 AM 35.4065 110.1450 230° Southwest  Level Estimated
Sun 04:51:00 AM 35.3537 110.0667 230° Southwest  Level Estimated
Sun 04:52:00 AM 35.3008 109.9886 230° Southwest  Level Estimated
Sun 04:53:00 AM 35.2478 109.9106 230° Southwest  Level Estimated
Sun 04:54:00 AM 35.1948 109.8326 230° Southwest  Level Estimated
Sun 04:55:00 AM 35.1417 109.7548 230° Southwest  Level Estimated
Sun 04:56:00 AM 35.0886 109.6771 230° Southwest  Level Estimated
Sun 04:57:00 AM 35.0355 109.5995 230° Southwest  Level Estimated
Sun 04:58:00 AM 34.9823 109.5219 230° Southwest  Level Estimated
Sun 04:59:00 AM 34.9290 109.4445 230° Southwest  Level Estimated
Sun 05:00:00 AM 34.8757 109.3672 230° Southwest  Level Estimated
Sun 05:01:00 AM 34.8224 109.2900 230° Southwest  Level Estimated
Sun 05:02:00 AM 34.7690 109.2129 230° Southwest  Level Estimated
Sun 05:03:00 AM 34.7155 109.1358 230° Southwest  Level Estimated
Sun 05:04:00 AM 34.6620 109.0589 230° Southwest  Level Estimated
Sun 05:05:00 AM 34.6085 108.9821 230° Southwest  Level Estimated
Sun 05:06:00 AM 34.5549 108.9054 230° Southwest  Level Estimated
Sun 05:07:00 AM 34.5013 108.8288 230° Southwest  Level Estimated
Sun 05:08:00 AM 34.4476 108.7522 230° Southwest  Level Estimated
Sun 05:09:00 AM 34.4471 108.7516 230° Southwest  Level Estimated
Sun 05:10:00 AM 34.4471 108.7516 121° Southeast  Level Estimated
Sun 05:11:00 AM 34.4471 108.7516 121° Southeast  Level Estimated
Sun 05:12:00 AM 34.4471 108.7516 121° Southeast  Level Estimated
Sun 05:13:00 AM 34.4471 108.7516 121° Southeast  Level Estimated
Sun 05:14:00 AM 34.4471 108.7516 121° Southeast  Level Estimated
Sun 05:15:00 AM 34.4471 108.7516 121° Southeast  Level Estimated
Sun 05:16:00 AM 34.4471 108.7516 121° Southeast  Level Estimated
Sun 05:17:00 AM 34.4471 108.7516 121° Southeast  Level Estimated
Sun 05:18:00 AM 34.4471 108.7516 121° Southeast  Level Estimated
Sun 05:19:00 AM 34.4471 108.7516 121° Southeast  Level Estimated
Sun 05:20:00 AM 34.4471 108.7516 121° Southeast  Level Estimated
Sun 05:21:00 AM 34.4471 108.7516 121° Southeast  Level Estimated
Sun 05:22:00 AM 34.4471 108.7516 121° Southeast  Level Estimated

Login

Don't have an account? Register now (free) for customized features, flight alerts, and more!